createdAt,value
2018-03-12T00:01:34.766Z,89.10
2018-03-12T00:04:01.284Z,89.30
2018-03-12T00:06:28.300Z,89.10
2018-03-12T00:08:54.673Z,89.00
2018-03-12T00:11:21.620Z,89.00
2018-03-12T00:13:48.894Z,88.90
2018-03-12T00:16:15.230Z,88.90
2018-03-12T00:18:42.168Z,88.70
2018-03-12T00:21:08.409Z,88.70
2018-03-12T00:23:34.645Z,88.80
2018-03-12T00:26:00.843Z,88.80
2018-03-12T00:28:27.024Z,88.80
2018-03-12T00:30:53.431Z,88.90
2018-03-12T00:33:19.657Z,89.20
2018-03-12T00:35:49.700Z,89.40
2018-03-12T00:38:16.355Z,89.40
2018-03-12T00:40:42.541Z,89.70
2018-03-12T00:43:08.712Z,89.80
2018-03-12T00:45:35.720Z,90.10
2018-03-12T00:48:01.958Z,90.00
2018-03-12T00:50:29.443Z,90.10
2018-03-12T00:52:57.256Z,90.10
2018-03-12T00:55:23.467Z,90.10
2018-03-12T00:57:49.984Z,90.00
2018-03-12T01:00:16.242Z,90.10
2018-03-12T01:02:42.406Z,90.20
2018-03-12T01:05:08.617Z,90.30
2018-03-12T01:07:35.173Z,90.30
2018-03-12T01:10:01.464Z,90.60
2018-03-12T01:12:28.448Z,90.30
2018-03-12T01:14:54.656Z,90.30
2018-03-12T01:17:20.876Z,90.30
2018-03-12T01:19:47.067Z,90.30
2018-03-12T01:22:13.265Z,90.30
2018-03-12T01:24:39.481Z,90.50
2018-03-12T01:27:05.760Z,90.40
2018-03-12T01:29:32.005Z,90.50
2018-03-12T01:31:58.161Z,90.70
2018-03-12T01:34:24.378Z,90.80
2018-03-12T01:36:50.717Z,90.50
2018-03-12T01:39:16.922Z,90.50
2018-03-12T01:41:43.109Z,90.50
2018-03-12T01:44:10.111Z,90.60
2018-03-12T01:46:36.376Z,90.50
2018-03-12T01:49:02.818Z,90.60
2018-03-12T01:51:29.048Z,90.70
2018-03-12T01:53:55.545Z,90.60
2018-03-12T01:56:21.983Z,90.60
2018-03-12T01:58:48.280Z,90.70
2018-03-12T02:01:14.448Z,90.70
2018-03-12T02:03:40.695Z,90.50
2018-03-12T02:06:06.849Z,90.50
2018-03-12T02:08:32.992Z,90.40
2018-03-12T02:10:59.504Z,90.40
2018-03-12T02:13:25.681Z,90.80
2018-03-12T02:15:51.881Z,90.60
2018-03-12T02:18:18.056Z,90.60
2018-03-12T02:20:44.988Z,90.90
2018-03-12T02:23:11.288Z,90.90
2018-03-12T02:25:37.524Z,90.80
2018-03-12T02:28:03.764Z,90.90
2018-03-12T02:30:30.642Z,91.00
2018-03-12T02:32:57.049Z,90.90
2018-03-12T02:35:23.969Z,91.00
2018-03-12T02:37:50.228Z,91.00
2018-03-12T02:40:16.385Z,90.80
2018-03-12T02:42:43.349Z,90.90
2018-03-12T02:45:09.500Z,90.90
2018-03-12T02:47:35.901Z,91.10
2018-03-12T02:50:02.186Z,91.10
2018-03-12T02:52:29.090Z,90.80
2018-03-12T02:54:55.321Z,90.80
2018-03-12T02:57:21.565Z,90.80
2018-03-12T02:59:47.749Z,90.80
2018-03-12T03:02:13.917Z,90.80
2018-03-12T03:04:40.145Z,90.80
2018-03-12T03:07:06.301Z,90.80
2018-03-12T03:09:32.945Z,90.80
2018-03-12T03:11:59.345Z,90.80
2018-03-12T03:14:25.738Z,90.80
2018-03-12T03:16:52.020Z,90.90
2018-03-12T03:19:18.499Z,90.80
2018-03-12T03:21:44.792Z,90.70
2018-03-12T03:24:11.000Z,90.80
2018-03-12T03:26:37.993Z,90.80
2018-03-12T03:29:04.218Z,90.80
2018-03-12T03:31:30.360Z,90.80
2018-03-12T03:33:56.529Z,90.70
2018-03-12T03:36:22.752Z,90.60
2018-03-12T03:38:49.192Z,90.70
2018-03-12T03:41:15.453Z,90.80
2018-03-12T03:43:41.897Z,90.60
2018-03-12T03:46:08.899Z,90.60
2018-03-12T03:48:35.881Z,90.50
2018-03-12T03:51:02.161Z,90.50
2018-03-12T03:53:28.485Z,90.40
2018-03-12T03:55:54.995Z,90.50
2018-03-12T03:58:21.400Z,90.60
2018-03-12T04:00:48.376Z,90.50
2018-03-12T04:03:14.588Z,90.50
2018-03-12T04:05:41.067Z,90.60
2018-03-12T04:08:07.294Z,90.60
2018-03-12T04:10:33.549Z,90.60
2018-03-12T04:12:59.939Z,90.70
2018-03-12T04:15:26.213Z,90.50
2018-03-12T04:17:52.560Z,90.40
2018-03-12T04:20:18.774Z,90.50
2018-03-12T04:22:45.181Z,90.30
2018-03-12T04:25:12.113Z,90.40
2018-03-12T04:27:38.880Z,90.40
2018-03-12T04:30:05.072Z,90.40
2018-03-12T04:32:31.313Z,90.20
2018-03-12T04:34:57.448Z,90.30
2018-03-12T04:37:23.630Z,90.20
2018-03-12T04:39:49.818Z,90.20
2018-03-12T04:42:16.029Z,90.10
2018-03-12T04:44:42.315Z,90.10
2018-03-12T04:47:09.291Z,90.20
2018-03-12T04:49:35.588Z,90.20
2018-03-12T04:52:02.504Z,90.20
2018-03-12T04:54:28.772Z,90.20
2018-03-12T04:56:55.643Z,90.40
2018-03-12T04:59:22.511Z,90.30
2018-03-12T05:01:48.632Z,90.30
2018-03-12T05:04:14.812Z,90.20
2018-03-12T05:06:40.946Z,90.20
2018-03-12T05:09:07.121Z,90.10
2018-03-12T05:11:33.258Z,90.10
2018-03-12T05:13:59.415Z,90.10
2018-03-12T05:16:25.555Z,90.10
2018-03-12T05:18:51.789Z,90.20
2018-03-12T05:21:17.951Z,90.10
2018-03-12T05:23:44.160Z,90.00
2018-03-12T05:26:10.323Z,90.10
2018-03-12T05:28:37.199Z,90.20
2018-03-12T05:31:04.109Z,90.20
2018-03-12T05:33:30.270Z,90.20
2018-03-12T05:35:56.471Z,90.20
2018-03-12T05:38:22.665Z,90.20
2018-03-12T05:40:48.931Z,90.30
2018-03-12T05:43:15.066Z,90.20
2018-03-12T05:45:41.213Z,90.30
2018-03-12T05:48:07.327Z,90.30
2018-03-12T05:50:34.191Z,90.40
2018-03-12T05:53:00.336Z,90.40
2018-03-12T05:55:26.533Z,90.40
2018-03-12T05:57:52.748Z,90.50
2018-03-12T06:00:18.875Z,90.50
2018-03-12T06:02:45.007Z,90.50
2018-03-12T06:05:11.177Z,90.60
2018-03-12T06:07:37.445Z,90.70
2018-03-12T06:10:03.627Z,90.70
2018-03-12T06:12:30.188Z,91.10
2018-03-12T06:14:56.552Z,90.80
2018-03-12T06:17:22.833Z,90.90
2018-03-12T06:19:48.991Z,90.80
2018-03-12T06:22:15.336Z,90.80
2018-03-12T06:24:41.759Z,90.80
2018-03-12T06:27:08.774Z,90.90
2018-03-12T06:29:35.144Z,90.90
2018-03-12T06:32:01.587Z,90.80
2018-03-12T06:34:28.929Z,90.90
2018-03-12T06:36:55.306Z,90.80
2018-03-12T06:39:34.916Z,90.90
2018-03-12T06:42:01.318Z,90.90
2018-03-12T06:44:28.392Z,91.00
2018-03-12T06:46:55.342Z,91.10
2018-03-12T06:49:22.273Z,91.00
2018-03-12T06:51:48.600Z,90.90
2018-03-12T06:54:14.968Z,91.30
2018-03-12T06:56:41.167Z,91.00
2018-03-12T06:59:07.504Z,91.00
2018-03-12T07:01:33.704Z,90.90
2018-03-12T07:04:00.064Z,90.80
2018-03-12T07:06:27.397Z,90.80
2018-03-12T07:08:53.722Z,90.80
2018-03-12T07:11:20.628Z,90.80
2018-03-12T07:13:47.030Z,90.80
2018-03-12T07:16:13.386Z,90.90
2018-03-12T07:18:39.629Z,90.90
2018-03-12T07:21:06.022Z,91.00
2018-03-12T07:23:32.308Z,90.90
2018-03-12T07:26:04.925Z,91.00
2018-03-12T07:28:31.223Z,91.00
2018-03-12T07:30:57.456Z,91.40
2018-03-12T07:33:23.787Z,91.00
2018-03-12T07:35:50.748Z,91.00
2018-03-12T07:38:17.028Z,91.10
2018-03-12T07:40:43.198Z,91.10
2018-03-12T07:43:09.451Z,91.00
2018-03-12T07:45:36.427Z,91.10
2018-03-12T07:48:02.807Z,91.10
2018-03-12T07:50:29.276Z,91.10
2018-03-12T07:52:55.463Z,91.20
2018-03-12T07:55:22.352Z,91.10
2018-03-12T07:57:48.676Z,91.10
2018-03-12T08:00:14.881Z,91.10
2018-03-12T08:02:41.939Z,90.40
2018-03-12T08:05:08.204Z,90.90
2018-03-12T08:07:34.443Z,90.30
2018-03-12T08:10:00.662Z,90.10
2018-03-12T08:12:26.836Z,90.10
2018-03-12T08:14:53.128Z,90.10
2018-03-12T08:17:19.414Z,90.10
2018-03-12T08:19:45.615Z,90.20
2018-03-12T08:22:11.924Z,90.10
2018-03-12T08:24:38.084Z,90.10
2018-03-12T08:27:04.583Z,89.80
2018-03-12T08:29:30.826Z,88.90
2018-03-12T08:31:57.221Z,88.70
2018-03-12T08:34:24.205Z,87.80
2018-03-12T08:36:51.139Z,87.00
2018-03-12T08:39:17.389Z,86.90
2018-03-12T08:41:43.589Z,86.60
2018-03-12T08:44:09.895Z,86.70
2018-03-12T08:46:36.158Z,86.70
2018-03-12T08:49:02.328Z,87.20
2018-03-12T08:51:32.830Z,87.60
2018-03-12T08:54:03.175Z,87.70
2018-03-12T08:56:29.592Z,87.70
2018-03-12T08:58:56.663Z,87.00
2018-03-12T09:01:22.913Z,86.90
2018-03-12T09:03:49.145Z,86.90
2018-03-12T09:06:15.403Z,86.90
2018-03-12T09:08:41.590Z,86.60
2018-03-12T09:11:07.702Z,86.90
2018-03-12T09:13:33.815Z,86.30
2018-03-12T09:16:01.198Z,87.00
2018-03-12T09:18:27.407Z,87.00
2018-03-12T09:20:54.391Z,87.30
2018-03-12T09:23:23.776Z,87.30
2018-03-12T09:25:52.529Z,87.70
2018-03-12T09:28:18.782Z,87.60
2018-03-12T09:30:44.936Z,87.00
2018-03-12T09:33:12.920Z,86.30
2018-03-12T09:35:39.191Z,85.50
2018-03-12T09:38:05.264Z,84.20
2018-03-12T09:40:31.415Z,84.20
2018-03-12T09:42:57.543Z,83.00
2018-03-12T09:45:23.829Z,83.10
2018-03-12T09:47:50.689Z,83.90
2018-03-12T09:50:17.649Z,84.80
2018-03-12T09:52:43.951Z,84.80
2018-03-12T09:55:10.075Z,85.00
2018-03-12T09:57:36.210Z,85.10
2018-03-12T10:00:02.335Z,84.10
2018-03-12T10:02:29.211Z,82.80
2018-03-12T10:04:55.370Z,82.70
2018-03-12T10:09:58.995Z,80.50
2018-03-12T10:12:25.127Z,81.60
2018-03-12T10:15:05.016Z,81.10
2018-03-12T10:17:31.162Z,80.90
2018-03-12T10:19:57.414Z,80.00
2018-03-12T10:22:23.879Z,80.30
2018-03-12T10:24:50.767Z,78.50
2018-03-12T10:27:16.884Z,79.10
2018-03-12T10:29:42.988Z,77.20
2018-03-12T10:32:09.170Z,77.90
2018-03-12T10:34:35.291Z,77.10
2018-03-12T10:37:02.168Z,76.80
2018-03-12T10:39:28.324Z,76.80
2018-03-12T10:41:54.692Z,77.50
2018-03-12T10:44:20.846Z,77.30
2018-03-12T10:46:46.974Z,77.40
2018-03-12T10:49:13.094Z,77.40
2018-03-12T10:51:39.395Z,76.60
2018-03-12T10:54:05.584Z,76.50
2018-03-12T10:56:31.735Z,75.00
2018-03-12T10:59:00.595Z,74.50
2018-03-12T11:01:28.794Z,73.70
2018-03-12T11:03:55.004Z,72.30
2018-03-12T11:06:23.673Z,70.80
2018-03-12T11:08:49.842Z,70.80
2018-03-12T11:11:16.705Z,71.10
2018-03-12T11:13:43.460Z,71.00
2018-03-12T11:16:10.332Z,70.20
2018-03-12T11:18:36.585Z,70.30
2018-03-12T11:21:05.564Z,68.30
2018-03-12T11:23:31.709Z,68.70
2018-03-12T11:25:57.947Z,68.50
2018-03-12T11:28:38.507Z,65.40
2018-03-12T11:31:09.029Z,64.70
2018-03-12T11:33:35.291Z,63.50
2018-03-12T11:36:02.161Z,59.00
2018-03-12T11:38:28.404Z,58.80
2018-03-12T11:40:54.976Z,58.80
2018-03-12T11:43:21.241Z,59.00
2018-03-12T11:45:47.371Z,59.60
2018-03-12T11:48:13.555Z,59.90
2018-03-12T11:50:39.831Z,58.20
2018-03-12T11:53:06.768Z,58.30
2018-03-12T11:55:33.671Z,57.70
2018-03-12T11:57:59.843Z,57.70
2018-03-12T12:00:26.013Z,58.00
2018-03-12T12:05:30.663Z,56.40
2018-03-12T12:07:58.756Z,56.30
2018-03-12T12:10:25.350Z,55.70
2018-03-12T12:12:51.563Z,56.10
2018-03-12T12:15:17.799Z,56.50
2018-03-12T12:17:45.814Z,56.30
2018-03-12T12:20:12.069Z,56.70
2018-03-12T12:22:41.211Z,57.20
2018-03-12T12:25:08.720Z,55.90
2018-03-12T12:27:36.563Z,55.90
2018-03-12T12:30:03.583Z,55.70
2018-03-12T12:32:43.868Z,56.10
2018-03-12T12:35:10.377Z,55.30
2018-03-12T12:37:39.523Z,56.70
2018-03-12T12:40:06.157Z,55.90
2018-03-12T12:42:33.074Z,55.80
2018-03-12T12:44:59.354Z,55.90
2018-03-12T12:47:29.749Z,55.80
2018-03-12T12:49:56.064Z,55.50
2018-03-12T12:52:25.027Z,55.20
2018-03-12T12:54:53.193Z,55.00
2018-03-12T12:57:20.534Z,55.80
2018-03-12T12:59:47.187Z,56.10
2018-03-12T13:02:13.571Z,56.10
2018-03-12T13:04:40.119Z,56.20
2018-03-12T13:07:16.079Z,56.00
2018-03-12T13:09:42.601Z,55.60
2018-03-12T13:12:08.872Z,55.30
2018-03-12T13:14:36.109Z,55.20
2018-03-12T13:17:07.984Z,55.60
2018-03-12T13:19:34.913Z,54.00
2018-03-12T13:22:01.073Z,54.00
2018-03-12T13:24:27.244Z,53.30
2018-03-12T13:26:56.835Z,53.00
2018-03-12T13:29:23.033Z,53.70
2018-03-12T13:31:49.276Z,54.30
2018-03-12T13:34:15.455Z,54.10
2018-03-12T13:36:41.651Z,53.50
2018-03-12T13:39:07.876Z,53.10
2018-03-12T13:41:34.043Z,53.10
2018-03-12T13:44:00.233Z,51.90
2018-03-12T13:46:28.612Z,52.60
2018-03-12T13:48:56.036Z,52.60
2018-03-12T13:51:22.306Z,52.50
2018-03-12T13:53:48.597Z,52.90
2018-03-12T13:56:14.761Z,53.40
2018-03-12T13:58:40.944Z,53.20
2018-03-12T14:01:08.025Z,54.30
2018-03-12T14:03:34.308Z,54.20
2018-03-12T14:06:00.487Z,53.60
2018-03-12T14:08:26.612Z,53.10
2018-03-12T14:10:52.774Z,53.20
2018-03-12T14:13:18.912Z,53.20
2018-03-12T14:15:47.700Z,53.00
2018-03-12T14:18:13.859Z,53.00
2018-03-12T14:20:40.832Z,53.30
2018-03-12T14:23:07.072Z,53.30
2018-03-12T14:25:33.191Z,53.30
2018-03-12T14:28:00.093Z,53.70
2018-03-12T14:30:27.137Z,53.70
2018-03-12T14:32:53.508Z,54.30
2018-03-12T14:35:35.871Z,54.00
2018-03-12T14:38:02.760Z,54.80
2018-03-12T14:40:28.923Z,54.80
2018-03-12T14:42:55.084Z,55.50
2018-03-12T14:45:22.288Z,56.30
2018-03-12T14:47:48.580Z,56.30
2018-03-12T14:50:15.948Z,55.60
2018-03-12T14:52:42.073Z,55.90
2018-03-12T14:55:08.204Z,55.10
2018-03-12T14:57:36.293Z,55.30
2018-03-12T15:00:02.807Z,55.40
2018-03-12T15:02:29.683Z,55.70
2018-03-12T15:04:55.819Z,55.60
2018-03-12T15:07:22.000Z,55.90
2018-03-12T15:09:48.201Z,55.80
2018-03-12T15:12:17.613Z,56.20
2018-03-12T15:14:44.257Z,56.40
2018-03-12T15:17:16.286Z,55.80
2018-03-12T15:19:42.519Z,56.20
2018-03-12T15:22:08.785Z,56.80
2018-03-12T15:24:34.934Z,56.90
2018-03-12T15:27:01.234Z,56.70
2018-03-12T15:29:27.435Z,57.10
2018-03-12T15:31:53.664Z,56.60
2018-03-12T15:34:20.595Z,57.10
2018-03-12T15:36:47.751Z,57.00
2018-03-12T15:39:14.021Z,57.60
2018-03-12T15:41:40.279Z,58.60
2018-03-12T15:44:07.192Z,61.30
2018-03-12T15:46:33.367Z,62.10
2018-03-12T15:49:02.961Z,65.00
2018-03-12T15:51:32.933Z,65.00
2018-03-12T15:54:00.598Z,65.80
2018-03-12T15:56:26.928Z,67.00
2018-03-12T15:58:53.122Z,67.80
2018-03-12T16:01:19.313Z,68.50
2018-03-12T16:03:45.517Z,67.80
2018-03-12T16:06:11.720Z,67.00
2018-03-12T16:08:37.956Z,66.20
2018-03-12T16:11:04.070Z,67.40
2018-03-12T16:13:31.000Z,67.10
2018-03-12T16:15:57.227Z,67.00
2018-03-12T16:18:23.624Z,65.80
2018-03-12T16:20:49.906Z,64.30
2018-03-12T16:23:16.032Z,64.40
2018-03-12T16:25:42.445Z,65.00
2018-03-12T16:28:10.763Z,66.20
2018-03-12T16:30:36.947Z,66.20
2018-03-12T16:33:03.142Z,66.00
2018-03-12T16:35:29.318Z,66.20
2018-03-12T16:37:55.564Z,66.20
2018-03-12T16:40:22.101Z,66.20
2018-03-12T16:45:51.475Z,65.70
2018-03-12T16:48:19.395Z,64.10
2018-03-12T16:50:45.682Z,65.10
2018-03-12T16:53:12.889Z,63.70
2018-03-12T16:55:41.071Z,64.30
2018-03-12T16:58:07.490Z,64.30
2018-03-12T17:00:35.724Z,64.60
2018-03-12T17:03:01.960Z,64.70
2018-03-12T17:05:28.382Z,65.20
2018-03-12T17:07:54.758Z,64.90
2018-03-12T17:10:22.414Z,65.10
2018-03-12T17:12:49.032Z,64.60
2018-03-12T17:15:16.000Z,64.30
2018-03-12T17:17:43.181Z,64.80
2018-03-12T17:20:10.080Z,65.90
2018-03-12T17:22:36.384Z,65.90
2018-03-12T17:25:03.467Z,66.80
2018-03-12T17:27:29.712Z,66.70
2018-03-12T17:29:55.915Z,68.00
2018-03-12T17:32:22.491Z,68.60
2018-03-12T17:34:48.756Z,69.30
2018-03-12T17:37:14.884Z,69.70
2018-03-12T17:39:41.044Z,69.90
2018-03-12T17:42:08.488Z,70.10
2018-03-12T17:44:35.293Z,70.20
2018-03-12T17:47:01.464Z,70.00
2018-03-12T17:49:27.939Z,69.90
2018-03-12T17:51:54.423Z,70.20
2018-03-12T17:54:25.350Z,69.90
2018-03-12T17:56:56.604Z,69.50
2018-03-12T17:59:22.763Z,69.20
2018-03-12T18:01:48.902Z,68.90
2018-03-12T18:04:15.424Z,68.90
2018-03-12T18:06:41.604Z,68.60
2018-03-12T18:09:07.818Z,68.20
2018-03-12T18:11:34.567Z,68.30
2018-03-12T18:14:05.999Z,68.30
2018-03-12T18:16:32.163Z,68.40
2018-03-12T18:19:00.080Z,68.30
2018-03-12T18:21:27.251Z,68.60
2018-03-12T18:23:53.886Z,68.10
2018-03-12T18:26:20.165Z,68.20
2018-03-12T18:28:47.133Z,68.20
2018-03-12T18:31:13.337Z,68.20
2018-03-12T18:33:39.729Z,68.20
2018-03-12T18:36:06.701Z,68.40
2018-03-12T18:38:33.774Z,67.60
2018-03-12T18:41:00.191Z,67.90
2018-03-12T18:43:26.397Z,67.60
2018-03-12T18:45:53.509Z,67.90
2018-03-12T18:48:19.737Z,67.80
2018-03-12T18:50:48.992Z,67.90
2018-03-12T18:53:28.612Z,68.10
2018-03-12T18:56:00.280Z,68.60
2018-03-12T18:58:29.575Z,68.60
2018-03-12T19:00:55.875Z,68.80
2018-03-12T19:03:22.293Z,68.90
2018-03-12T19:05:48.508Z,69.20
2018-03-12T19:08:14.728Z,69.80
2018-03-12T19:10:41.914Z,70.40
2018-03-12T19:13:08.104Z,69.70
2018-03-12T19:15:35.502Z,70.00
2018-03-12T19:18:03.110Z,69.80
2018-03-12T19:20:29.392Z,69.70
2018-03-12T19:22:55.664Z,69.80
2018-03-12T19:25:28.197Z,70.00
2018-03-12T19:27:55.699Z,69.90
2018-03-12T19:30:22.399Z,70.20
2018-03-12T19:32:48.905Z,70.70
2018-03-12T19:35:19.126Z,70.10
2018-03-12T19:37:45.440Z,70.00
2018-03-12T19:40:12.071Z,70.10
2018-03-12T19:42:38.719Z,70.10
2018-03-12T19:45:05.475Z,70.10
2018-03-12T19:47:32.030Z,70.50
2018-03-12T19:49:58.499Z,70.40
2018-03-12T19:52:25.109Z,70.10
2018-03-12T19:54:51.524Z,69.80
2018-03-12T19:57:18.045Z,70.10
2018-03-12T19:59:44.644Z,70.80
2018-03-12T20:02:10.958Z,70.00
2018-03-12T20:04:40.202Z,70.50
2018-03-12T20:07:07.089Z,70.50
2018-03-12T20:09:34.481Z,70.10
2018-03-12T20:12:01.227Z,70.10
2018-03-12T20:14:40.898Z,70.10
2018-03-12T20:17:07.365Z,70.10
2018-03-12T20:19:33.838Z,70.10
2018-03-12T20:22:00.423Z,70.50
2018-03-12T20:24:27.980Z,70.40
2018-03-12T20:26:54.633Z,70.40
2018-03-12T20:29:21.189Z,70.60
2018-03-12T20:31:48.774Z,70.90
2018-03-12T20:34:16.259Z,70.80
2018-03-12T20:36:42.749Z,70.60
2018-03-12T20:39:09.464Z,70.60
2018-03-12T20:41:36.950Z,70.70
2018-03-12T20:44:06.039Z,70.70
2018-03-12T20:46:33.452Z,70.70
2018-03-12T20:49:03.393Z,70.80
2018-03-12T20:51:35.630Z,70.10
2018-03-12T20:54:05.680Z,70.30
2018-03-12T20:56:35.046Z,70.30
2018-03-12T20:59:01.355Z,70.40
2018-03-12T21:01:29.122Z,70.30
2018-03-12T21:04:05.912Z,70.30
2018-03-12T21:06:35.694Z,70.60
2018-03-12T21:09:02.398Z,69.90
2018-03-12T21:11:29.205Z,69.80
2018-03-12T21:13:55.508Z,70.00
2018-03-12T21:16:21.914Z,69.80
2018-03-12T21:18:49.001Z,69.40
2018-03-12T21:21:15.331Z,69.40
2018-03-12T21:23:42.393Z,69.60
2018-03-12T21:26:08.986Z,69.90
2018-03-12T21:28:36.215Z,69.80
2018-03-12T21:31:03.413Z,69.40
2018-03-12T21:33:35.337Z,69.40
2018-03-12T21:36:01.922Z,69.40
2018-03-12T21:38:28.061Z,69.40
2018-03-12T21:40:54.364Z,69.60
2018-03-12T21:43:36.048Z,69.60
2018-03-12T21:46:02.230Z,69.50
2018-03-12T21:48:30.789Z,70.40
2018-03-12T21:50:56.939Z,70.50
2018-03-12T21:53:23.057Z,71.70
2018-03-12T21:58:31.824Z,71.90
2018-03-12T22:00:58.416Z,72.90
2018-03-12T22:03:24.698Z,72.60
2018-03-12T22:05:54.157Z,73.90
2018-03-12T22:08:20.440Z,74.40
2018-03-12T22:10:46.646Z,74.60
2018-03-12T22:13:12.795Z,74.70
2018-03-12T22:15:39.649Z,74.70
2018-03-12T22:18:05.822Z,74.20
2018-03-12T22:20:32.040Z,74.40
2018-03-12T22:22:58.171Z,74.70
2018-03-12T22:25:25.397Z,73.70
2018-03-12T22:27:51.570Z,73.70
2018-03-12T22:30:19.959Z,73.20
2018-03-12T22:32:46.198Z,73.20
2018-03-12T22:35:12.336Z,72.80
2018-03-12T22:37:38.467Z,72.70
2018-03-12T22:40:04.685Z,72.70
2018-03-12T22:42:32.433Z,73.20
2018-03-12T22:45:05.452Z,72.20
2018-03-12T22:47:32.469Z,72.40
2018-03-12T22:49:58.715Z,72.70
2018-03-12T22:52:25.856Z,72.60
2018-03-12T22:54:52.081Z,72.60
2018-03-12T22:57:18.204Z,72.80
2018-03-12T22:59:44.523Z,72.80
2018-03-12T23:02:10.708Z,72.70
2018-03-12T23:04:36.818Z,73.20
2018-03-12T23:07:02.960Z,73.10
2018-03-12T23:09:29.173Z,73.30
2018-03-12T23:11:55.313Z,73.50
2018-03-12T23:14:21.525Z,73.90
2018-03-12T23:16:47.692Z,73.90
2018-03-12T23:19:13.837Z,74.10
2018-03-12T23:21:39.998Z,74.20
2018-03-12T23:24:06.828Z,74.60
2018-03-12T23:26:33.975Z,74.40
2018-03-12T23:29:00.834Z,75.20
2018-03-12T23:31:27.716Z,75.40
2018-03-12T23:33:53.933Z,75.40
2018-03-12T23:36:20.102Z,75.20
2018-03-12T23:38:46.215Z,75.60
2018-03-12T23:43:44.502Z,75.70
2018-03-12T23:46:10.611Z,76.10
2018-03-12T23:48:36.765Z,76.30
2018-03-12T23:51:02.918Z,76.50
2018-03-12T23:53:29.066Z,76.70
2018-03-12T23:55:55.416Z,77.00
2018-03-12T23:58:22.287Z,77.80
